Main page
METAR-TAF:

METAR-TAF

Airports :

Mid Delta Regional Airport

Greenville, Mississippi, United States

latitude: 33-28-58N, longitude: 090-59-08W, elevation: 131 ft

Current weather observation

The report was made 1 hour and 8 minutes ago, at 03:53 UTC
Wind 6 mph from the East/Northeast
Temperature 81°F
Humidity 79%
Pressure 30.14 in. Hg
Visibility: 10 miles
Clear sky

METAR: KGLH 200353Z AUTO 06005KT 10SM CLR 27/23 A3014 RMK AO2 SLP211 T02670228

Time: 00:01 (05:01 UTC)

Forecast

The report was made 5 hours and 16 minutes ago, at 23:45 UTC
Forecast valid from 20 at 00 UTC to 20 at 24 UTC
Wind 9 mph from the East
Visibility: 6 miles
Scattered clouds at a height of 10000 ft
Broken clouds at a height of 25000 ft

TAF: KGLH 192345Z 2000/2024 08008KT P6SM SCT100 BKN250

Weather observations and forecasts of more than 4000 airports (METAR and TAF reports).

The available stations are represented by yellow and red dots on the map.

Hover mouse over dot to see the name of the station.

Then click to see weather observations and forecasts.

To change the map : click on the green buttons with a black cross to zoom in, on the green button with a dash to zoom out, or on the green arrows for adjacent maps.


METAR-TAF: